Headquarters, Valles Caldera, New Mexico Weather observations

Data are for 10 minute period ending at time listed.
 Day   Time   Solar   Ave.   Ave.  Ave.  Vector  Max.   Baro.   Total    
  of    of     Rad.   Air    Rel.  Wind   Wind   Wind  Press.  Precip.   
Year   Day            Temp.  Hum.  Speed  Dir.   Gust                    
2016   (MST)  Kw/m2    F      %     mph   deg.    mph    mb.     in.     
-------------------------------------------------------------------------
 268    4:20   0.00   29.3    68    3.6   356     6.0   740.5    0.00 
 268    4:30   0.00   31.3    63    4.1   343     6.6   740.5    0.00 
 268    4:40   0.00   31.1    62    4.1   339    10.2   740.5    0.00 
 268    4:50   0.00   34.1    52    5.4   276    16.1   740.6    0.00 
 268    5:00   0.00   36.5    44    5.2   227    10.2   740.6    0.00 
 268    5:10   0.00   32.2    59    2.5    46     4.2   740.6    0.00 
 268    5:20   0.00   29.3    67    4.4    14     7.2   740.6    0.00 
 268    5:30   0.00   30.0    66    4.2   354     7.2   740.7    0.00 
 268    5:40   0.00   29.4    67    3.2   318     5.4   740.8    0.00 
 268    5:50   0.00   29.5    67    3.4   269     6.0   740.8    0.00 
 268    6:00   0.00   28.5    70    3.4   261     5.4   740.9    0.00 
 268    6:10   0.01   27.8    73    3.3   284     4.8   741.0    0.00 
 268    6:20   0.03   29.9    71    4.1   287     6.0   741.1    0.00 
 268    6:30   0.05   32.6    66    4.1   236     6.0   741.1    0.00 
 268    6:40   0.09   34.8    66    3.6   235     6.0   741.2    0.00 
 268    6:50   0.12   36.0    61    2.1   111     4.2   741.1    0.00 
 268    7:00   0.14   32.5    67    3.4    46     6.0   741.1    0.00 
 268    7:10   0.17   34.5    66    1.6   134     3.6   741.2    0.00 
 268    7:20   0.20   35.8    69    2.8   204     4.2   741.1    0.00 
 268    7:30   0.23   38.7    67    4.0   210     5.4   741.2    0.00 
 268    7:40   0.26   41.6    62    3.2   201     4.8   741.1    0.00 
 268    7:50   0.29   41.5    62    2.9    95     5.4   741.1    0.00 
 268    8:00   0.32   39.4    68    4.3    65     6.6   741.0    0.00 
 268    8:10   0.35   40.0    64    3.7    58     6.0   741.0    0.00 
 268    8:20   0.38   41.9    60    3.1    64     5.4   741.1    0.00 
 268    8:30   0.40   43.9    59    3.4    81     5.4   741.0    0.00 
 268    8:40   0.43   45.9    52    7.5   157    16.1   740.9    0.00 
 268    8:50   0.45   47.7    46   10.0   203    16.7   740.9    0.00 
 268    9:00   0.47   47.9    46   10.8   198    17.9   741.1    0.00 
 268    9:10   0.49   48.1    46    9.6   190    16.1   741.1    0.00 
 268    9:20   0.52   48.8    44   11.0   195    18.5   741.2    0.00 
 268    9:30   0.54   49.5    44   10.2   204    17.9   741.4    0.00 
 268    9:40   0.56   49.9    44    9.0   192    15.5   741.4    0.00 
 268    9:50   0.57   50.3    44   10.1   192    14.9   741.5    0.00 
 268   10:00   0.59   50.3    43    8.7   187    14.9   741.6    0.00 
 268   10:10   0.61   51.0    42   10.6   196    18.5   741.7    0.00 
 268   10:20   0.62   51.1    42   10.1   197    16.7   741.7    0.00 
 268   10:30   0.64   51.5    40    9.3   210    15.5   741.8    0.00 
 268   10:40   0.65   52.8    39    6.8   213    13.7   741.9    0.00 
 268   10:50   0.66   52.6    41    9.9   209    14.9   741.9    0.00 
 268   11:00   0.67   53.1    42    9.2   217    14.9   742.0    0.00 
 268   11:10   0.69   53.5    41    5.8   228    10.2   742.0    0.00 
 268   11:20   0.69   53.8    38    5.2   241    13.7   742.1    0.00 
 268   11:30   0.70   51.8    40    7.2   349    13.7   742.1    0.00 
 268   11:40   0.70   51.7    42    6.1   333    12.5   742.0    0.00 
 268   11:50   0.71   53.2    39    5.3   200    11.3   741.9    0.00 
 268   12:00   0.71   54.5    38    4.6   216     9.6   741.8    0.00 
 268   12:10   0.72   54.1    38    6.0   163    11.9   741.7    0.00 
 268   12:20   0.72   54.8    40    9.2   178    19.7   741.6    0.00 
 268   12:30   0.75   55.9    41    7.0   241    12.5   741.6    0.00 
 268   12:40   0.78   55.2    42    5.2   357     9.6   741.7    0.00 
 268   12:50   0.72   54.1    44    6.3   328    12.5   741.6    0.00 
 268   13:00   0.70   54.5    44    7.5    39    14.9   741.5    0.00 
 268   13:10   0.72   54.6    44    6.8    70    10.2   741.5    0.00 
 268   13:20   0.80   55.7    41    4.8    59     8.4   741.5    0.00 
 268   13:30   0.77   54.9    42    6.2    90    10.8   741.4    0.00 
 268   13:40   0.76   56.3    40    6.2   146    11.9   741.3    0.00 
 268   13:50   0.79   56.9    36    6.2   175    11.9   741.3    0.00 
 268   14:00   0.74   57.0    35    5.3   191    10.8   741.2    0.00 
 268   14:10   0.64   57.9    35    7.9   218    11.9   741.2    0.00 
 268   14:20   0.60   57.9    35    6.0   224    10.8   741.3    0.00 
 268   14:30   0.57   57.1    34    6.6   192    13.7   741.2    0.00 
 268   14:40   0.56   57.0    34    6.4   229    11.9   741.3    0.00 
 268   14:50   0.54   57.4    34    7.7   238    16.1   741.3    0.00 
 268   15:00   0.51   56.9    35    8.6   210    13.7   741.2    0.00 
 268   15:10   0.48   56.4    35    8.4   201    15.5   741.2    0.00 
 268   15:20   0.46   56.5    34    7.7   200    13.1   741.2    0.00 
 268   15:30   0.43   56.8    34    8.5   212    17.3   741.2    0.00 
 268   15:40   0.40   56.3    33    8.9   205    14.9   741.2    0.00 
 268   15:50   0.38   56.6    33    7.2   240    11.3   741.4    0.00 
 268   16:00   0.35   57.0    33    6.2   239    11.9   741.4    0.00 
 268   16:10   0.32   55.9    34    8.1   239    13.7   741.4    0.00 
 268   16:20   0.29   55.1    35    7.3   242    13.1   741.5    0.00 
 268   16:30   0.26   54.8    36    6.7   278    12.5   741.6    0.00 
 268   16:40   0.23   53.5    37    6.4   288    11.3   741.7    0.00 
 268   16:50   0.20   52.4    38    4.8   308     9.0   741.8    0.00 
 268   17:00   0.16   51.8    40    4.8   312    11.3   741.8    0.00 
 268   17:10   0.05   49.9    42    4.7   320    10.8   742.0    0.00 
 268   17:20   0.01   48.5    44    5.0   322    10.2   742.0    0.00 
 268   17:30   0.01   47.7    45    5.8   325    11.9   741.9    0.00 
 268   17:40   0.01   47.2    46    5.4   314    13.1   741.8    0.00 
 268   17:50   0.01   46.7    48    4.8   309     9.6   741.8    0.00 
 268   18:00   0.01   46.2    48    5.1   310    10.8   741.8    0.00 
 268   18:10   0.00   46.1    48    4.4   302     9.0   741.8    0.00 
 268   18:20   0.00   45.5    49    3.4   327     8.4   741.9    0.00 
 268   18:30   0.00   45.0    50    3.4   352     8.4   742.0    0.00 
 268   18:40   0.00   44.3    52    3.5    21     9.6   742.0    0.00 
 268   18:50   0.00   44.3    51    4.3   335     9.0   742.1    0.00 
 268   19:00   0.00   44.0    52    2.5    38    12.5   742.2    0.00 
 268   19:10   0.00   44.0    52    4.1   338    12.5   742.4    0.00 
 268   19:20   0.00   44.2    53    5.6   322    11.3   742.4    0.00 
 268   19:30   0.00   44.4    54    5.3   326     9.6   742.6    0.00 
 268   19:40   0.00   44.1    55    4.3   346    11.3   742.7    0.00 
 268   19:50   0.00   43.8    57    5.1   342    13.1   742.8    0.00 
 268   20:00   0.00   43.7    58    5.8   316    13.7   742.8    0.00 
 268   20:10   0.00   43.5    59    4.5   335    10.8   742.9    0.00 
 268   20:20   0.00   43.0    60    2.9    18     8.4   742.9    0.00 
 268   20:30   0.00   42.8    61    3.3   349     7.2   743.0    0.00 
 268   20:40   0.00   39.8    66    5.3    65     8.4   743.0    0.00 
 268   20:50   0.00   37.4    72    4.5    32     8.4   743.1    0.00 
 268   21:00   0.00   37.8    70    2.7   346     9.0   743.2    0.00 
 268   21:10   0.00   36.7    73    2.8    10     5.4   743.2    0.00 
 268   21:20   0.00   36.5    73    2.5   344     4.8   743.3    0.00 
 268   21:30   0.00   36.2    74    2.3   291     4.2   743.5    0.00 
 268   21:40   0.00   35.1    77    3.8   293     5.4   743.6    0.00 
 268   21:50   0.00   34.4    79    3.8   286     5.4   743.6    0.00 
 268   22:00   0.00   34.2    80    2.6   258     4.8   743.5    0.00 
 268   22:10   0.00   34.1    79    3.4   226     5.4   743.5    0.00 
 268   22:20   0.00   35.0    78    2.2   271     3.6   743.6    0.00 
 268   22:30   0.00   34.8    78    2.5   311     4.2   743.5    0.00 
 268   22:40   0.00   36.0    75    3.0   295     4.8   743.6    0.00 
 268   22:50   0.00   35.6    75    3.6   293     6.0   743.7    0.00 
 268   23:00   0.00   35.1    76    3.3   297     6.0   743.7    0.00 
 268   23:10   0.00   35.1    75    3.0   251     5.4   743.7    0.00 
 268   23:20   0.00   33.8    79    3.9   270     5.4   743.7    0.00 
 268   23:30   0.00   34.4    78    4.3   284     6.0   743.6    0.00 
 268   23:40   0.00   34.0    78    3.2   263     4.8   743.6    0.00 
 268   23:50   0.00   34.7    76    4.9   291     6.6   743.6    0.00 
 269    0:00   0.00   34.2    76    3.9   247     5.4   743.7    0.00 
 269    0:10   0.00   34.2    76    4.7   244     7.2   743.8    0.00 
 269    0:20   0.00   34.0    76    3.9   267     6.0   743.7    0.00 
 269    0:30   0.00   33.9    77    3.6   274     4.8   743.8    0.00 
 269    0:40   0.00   34.5    75    4.4   288     6.0   743.9    0.00 
 269    0:50   0.00   34.5    74    4.5   269     6.0   743.9    0.00 
 269    1:00   0.00   34.6    74    4.7   274     7.2   744.0    0.00 
 269    1:10   0.00   34.4    75    4.0   271     5.4   743.9    0.00 
 269    1:20   0.00   33.8    77    4.2   275     6.0   744.0    0.00 
 269    1:30   0.00   34.8    74    3.8   276     5.4   744.1    0.00 
 269    1:40   0.00   34.9    75    3.6   278     4.8   744.1    0.00 
 269    1:50   0.00   34.9    74    4.1   265     5.4   744.1    0.00 
 269    2:00   0.00   35.1    73    3.7   271     4.8   744.2    0.00 
 269    2:10   0.00   35.2    74    3.7   268     5.4   744.2    0.00 
 269    2:20   0.00   35.0    74    4.1   273     5.4   744.1    0.00 
 269    2:30   0.00   35.0    74    4.3   272     5.4   744.2    0.00 
 269    2:40   0.00   34.9    74    4.1   273     5.4   744.2    0.00 
 269    2:50   0.00   34.6    75    3.3   274     4.8   744.4    0.00 
 269    3:00   0.00   34.8    75    3.9   274     5.4   744.4    0.00 
 269    3:10   0.00   35.1    73    3.8   285     4.8   744.4    0.00 
 269    3:20   0.00   34.8    73    3.6   271     4.8   744.5    0.00 
 269    3:30   0.00   34.2    75    3.4   272     4.8   744.5    0.00 
 269    3:40   0.00   34.6    73    3.7   283     4.8   744.5    0.00 
 269    3:50   0.00   34.0    76    3.9   276     5.4   744.6    0.00 
 269    4:00   0.00   33.9    75    4.2   272     5.4   744.6    0.00 
 269    4:10   0.00   33.7    76    3.5   272     4.8   744.7    0.00 

Return to Headquarters, Valles Caldera graphs page.


Western Regional Climate Center,wrcc@dri.edu